Time;durP1;ratioP1;P1;durP2;ratioP2;P2;SDS_P1;SDS_P2;PMS_P1;PMS_P2;Temp;Humidity;BMP_temperature;BMP_pressure;BME280_temperature;BME280_humidity;BME280_pressure;Samples;Min_cycle;Max_cycle;Signal;HPM_P1;HPM_P2
2022/11/05 00:09:39;;;;;;;;;;;6.80;99.90;;;5.85;100.00;95298.06;10525509;28;1545;-71
2022/11/05 00:20:02;;;;;;;;;;;6.80;99.90;;;5.91;100.00;95307.72;10534698;28;1913;-71
2022/11/05 00:25:15;;;;;;;;;;;6.90;99.90;;;5.91;100.00;95333.59;10536301;28;1117;-72
2022/11/05 00:30:18;;;;;;;;;;;6.90;99.90;;;6.02;100.00;95329.94;10536446;28;1453;-73
2022/11/05 00:35:20;;;;;;;;;;;7.00;99.90;;;6.11;100.00;95332.97;10536850;28;1019;-71
2022/11/05 00:40:23;;;;;;;;;;;7.00;99.90;;;6.17;100.00;95342.59;10520816;28;1913;-71
2022/11/05 00:45:26;;;;;;;;;;;7.10;99.90;;;6.22;100.00;95342.63;10540149;28;873;-74
2022/11/05 00:50:29;;;;;;;;;;;7.00;99.90;;;6.17;100.00;95350.59;10531809;28;1612;-71
2022/11/05 00:55:33;;;;;;;;;;;7.10;99.90;;;6.18;100.00;95347.69;10539345;28;1628;-72
2022/11/05 01:00:36;;;;;;;;;;;7.10;99.90;;;6.17;100.00;95345.25;10533457;28;1976;-71
2022/11/05 01:05:39;;;;;;;;;;;7.20;99.90;;;6.08;100.00;95344.13;10535973;28;1696;-75
2022/11/05 01:10:41;;;;;;;;;;;7.10;99.90;;;5.95;100.00;95350.69;10531884;28;1488;-77
2022/11/05 01:15:44;;;;;;;;;;;7.00;99.90;;;5.82;100.00;95353.75;10534784;28;1037;-71
2022/11/05 01:20:47;;;;;;;;;;;6.90;99.90;;;5.63;100.00;95364.00;10532848;28;1918;-74
2022/11/05 01:25:50;;;;;;;;;;;6.80;99.90;;;5.55;100.00;95375.91;10538066;28;1620;-72
2022/11/05 01:30:53;;;;;;;;;;;6.70;99.90;;;5.42;100.00;95385.13;10543093;28;1193;-71
2022/11/05 01:35:56;;;;;;;;;;;6.60;99.90;;;5.43;100.00;95386.72;10541372;28;1533;-71
2022/11/05 01:40:58;;;;;;;;;;;6.50;99.90;;;5.57;100.00;95383.66;10531461;28;1929;-72
2022/11/05 01:46:01;;;;;;;;;;;6.60;99.90;;;5.62;100.00;95373.06;10532906;28;1712;-71
2022/11/05 01:51:04;;;;;;;;;;;6.60;99.90;;;5.60;100.00;95380.50;10531880;28;1122;-72
2022/11/05 01:56:06;;;;;;;;;;;6.60;99.90;;;5.45;100.00;95383.00;10526749;28;1632;-76
2022/11/05 02:01:09;;;;;;;;;;;6.60;99.90;;;5.34;100.00;95398.06;10534050;28;1995;-77
2022/11/05 02:06:12;;;;;;;;;;;6.50;99.90;;;5.28;100.00;95399.06;10526916;28;1596;-71
2022/11/05 02:11:15;;;;;;;;;;;6.40;99.90;;;5.20;100.00;95387.00;10532411;28;1429;-72
2022/11/05 02:16:18;;;;;;;;;;;6.40;99.90;;;5.06;100.00;95381.22;10538493;28;996;-73
2022/11/05 02:21:21;;;;;;;;;;;6.20;99.90;;;5.00;100.00;95392.06;10537043;28;2055;-74
2022/11/05 02:26:24;;;;;;;;;;;6.20;99.90;;;4.96;100.00;95383.75;10542428;28;1118;-74
2022/11/05 02:31:26;;;;;;;;;;;6.10;99.90;;;4.93;100.00;95386.13;10535588;28;1106;-71
2022/11/05 02:36:29;;;;;;;;;;;6.10;99.90;;;4.91;100.00;95390.91;10540024;28;1910;-72
2022/11/05 02:41:32;;;;;;;;;;;6.00;99.90;;;4.98;100.00;95396.84;10539060;28;1659;-74
2022/11/05 02:46:35;;;;;;;;;;;6.10;99.90;;;4.94;100.00;95399.19;10540603;28;1082;-76
2022/11/05 02:51:37;;;;;;;;;;;6.10;99.90;;;4.88;100.00;95395.66;10536754;28;1773;-72
2022/11/05 02:56:40;;;;;;;;;;;6.00;99.90;;;4.84;100.00;95410.53;10545079;28;1894;-71
2022/11/05 03:01:43;;;;;;;;;;;5.90;99.90;;;4.86;100.00;95412.94;10546081;28;1137;-71
2022/11/05 03:06:49;;;;;;;;;;;5.90;99.90;;;4.91;100.00;95430.84;10539941;28;1687;-71
2022/11/05 03:11:54;;;;;;;;;;;5.80;99.90;;;5.15;100.00;95433.06;10537769;28;1589;-74
2022/11/05 03:16:57;;;;;;;;;;;6.00;99.90;;;5.40;100.00;95447.72;10535748;28;1977;-71
2022/11/05 03:22:01;;;;;;;;;;;6.20;99.90;;;5.64;100.00;95445.59;10534428;28;1425;-71
2022/11/05 03:27:03;;;;;;;;;;;6.40;99.90;;;5.71;100.00;95451.53;10531510;28;1593;-72
2022/11/05 03:32:06;;;;;;;;;;;6.50;99.90;;;5.81;100.00;95464.19;10538859;28;1125;-73
2022/11/05 03:37:09;;;;;;;;;;;6.70;99.90;;;5.96;100.00;95467.84;10537242;28;1903;-71
2022/11/05 03:42:11;;;;;;;;;;;6.70;99.90;;;5.98;100.00;95483.63;10535170;28;1643;-73
2022/11/05 03:47:15;;;;;;;;;;;6.90;99.90;;;6.11;100.00;95487.75;10537179;28;1663;-72
2022/11/05 03:52:17;;;;;;;;;;;6.90;99.90;;;6.16;100.00;95498.44;10536752;28;1160;-72
2022/11/05 03:57:20;;;;;;;;;;;7.00;99.90;;;6.16;100.00;95501.91;10536862;28;1968;-71
2022/11/05 04:02:24;;;;;;;;;;;7.10;99.90;;;6.18;100.00;95504.34;10538039;28;1494;-71
2022/11/05 04:18:08;;;;;;;;;;;7.20;99.90;;;6.41;100.00;95508.56;10533151;28;1909;-74
2022/11/05 04:33:53;;;;;;;;;;;7.30;99.90;;;6.26;100.00;95522.56;10534695;28;1584;-72
2022/11/05 04:38:56;;;;;;;;;;;7.10;99.90;;;6.23;100.00;95533.75;10529015;28;1979;-72
2022/11/05 04:43:58;;;;;;;;;;;7.10;99.90;;;6.05;100.00;95528.78;10534016;28;1458;-72
2022/11/05 04:49:01;;;;;;;;;;;7.00;99.90;;;6.02;100.00;95527.38;10530503;28;1624;-73
2022/11/05 04:54:04;;;;;;;;;;;7.00;99.90;;;6.01;100.00;95535.66;10534330;28;1191;-72
2022/11/05 04:59:06;;;;;;;;;;;6.80;99.90;;;6.04;100.00;95541.28;10534365;28;1972;-72
2022/11/05 05:04:09;;;;;;;;;;;6.80;99.90;;;6.01;100.00;95546.31;10534681;28;1133;-72
2022/11/05 05:09:12;;;;;;;;;;;6.80;99.90;;;5.97;100.00;95549.47;10529840;28;1585;-72
2022/11/05 05:14:14;;;;;;;;;;;6.90;99.90;;;6.00;100.00;95556.19;10534790;28;1189;-71
2022/11/05 05:19:17;;;;;;;;;;;6.80;99.90;;;6.10;100.00;95552.81;10533905;28;1910;-73
2022/11/05 05:24:20;;;;;;;;;;;6.90;99.90;;;6.05;100.00;95558.13;10492831;28;821;-71
2022/11/05 05:29:22;;;;;;;;;;;7.00;99.90;;;6.11;100.00;95565.13;10517536;28;1433;-71
2022/11/05 05:34:25;;;;;;;;;;;7.00;99.90;;;6.14;100.00;95564.63;10534913;28;1228;-72
2022/11/05 05:39:28;;;;;;;;;;;7.00;99.90;;;6.19;100.00;95570.00;10531977;28;1988;-72
2022/11/05 05:44:30;;;;;;;;;;;7.00;99.90;;;6.20;100.00;95574.28;10533649;28;1401;-73
2022/11/05 05:49:33;;;;;;;;;;;7.10;99.90;;;6.24;100.00;95572.75;10534533;28;1782;-74
2022/11/05 05:54:36;;;;;;;;;;;7.00;99.90;;;6.26;100.00;95578.63;10550381;28;975;-73
2022/11/05 05:59:44;;;;;;;;;;;7.10;99.90;;;6.28;100.00;95581.84;10547428;28;1976;-71
2022/11/05 06:04:47;;;;;;;;;;;7.10;99.90;;;6.30;100.00;95585.09;10542843;28;829;-71
2022/11/05 06:09:49;;;;;;;;;;;7.20;99.90;;;6.27;100.00;95592.78;10537316;28;1644;-71
2022/11/05 06:14:52;;;;;;;;;;;7.20;99.90;;;6.38;100.00;95606.00;10541168;28;1187;-71
2022/11/05 06:19:55;;;;;;;;;;;7.20;99.90;;;6.43;100.00;95611.38;10539894;28;1910;-71
2022/11/05 06:24:57;;;;;;;;;;;7.30;99.90;;;6.46;100.00;95612.75;10540829;28;1087;-71
2022/11/05 06:30:00;;;;;;;;;;;7.40;99.90;;;6.42;100.00;95617.75;10535492;28;1636;-76
2022/11/05 06:35:02;;;;;;;;;;;7.30;99.90;;;6.40;100.00;95627.91;10533618;28;1478;-72
2022/11/05 06:40:05;;;;;;;;;;;7.30;99.90;;;6.52;100.00;95632.28;10537454;28;1906;-71
2022/11/05 06:45:08;;;;;;;;;;;7.30;99.90;;;6.58;100.00;95647.31;10541722;28;1175;-70
2022/11/05 06:50:10;;;;;;;;;;;7.50;99.90;;;6.63;100.00;95648.19;10533217;28;1782;-72
2022/11/05 06:55:13;;;;;;;;;;;7.50;99.90;;;6.74;100.00;95652.56;10541159;28;1219;-74
2022/11/05 07:00:16;;;;;;;;;;;7.60;99.90;;;6.80;100.00;95656.06;10537433;28;1906;-73
2022/11/05 07:05:18;;;;;;;;;;;7.60;99.90;;;6.85;100.00;95666.00;10540783;28;1731;-72
2022/11/05 07:10:21;;;;;;;;;;;7.70;99.90;;;6.88;100.00;95673.53;10529497;28;1426;-71
2022/11/05 07:15:23;;;;;;;;;;;7.80;99.90;;;7.05;100.00;95691.06;10539791;28;1125;-70
2022/11/05 07:20:26;;;;;;;;;;;7.80;99.90;;;7.19;100.00;95691.47;10536110;28;1942;-71
2022/11/05 07:25:35;;;;;;;;;;;8.00;99.90;;;7.45;100.00;95699.72;10537540;28;1628;-71
2022/11/05 07:30:38;;;;;;;;;;;8.10;99.90;;;7.51;100.00;95710.19;10541137;28;1122;-72
2022/11/05 07:35:40;;;;;;;;;;;8.20;99.90;;;7.67;100.00;95711.09;10537681;28;1402;-71
2022/11/05 07:40:43;;;;;;;;;;;8.40;99.90;;;7.82;100.00;95711.22;10537670;28;1982;-71
2022/11/05 07:45:46;;;;;;;;;;;8.50;99.90;;;8.12;100.00;95715.16;10538450;28;855;-71
2022/11/05 07:50:49;;;;;;;;;;;;;;;8.22;100.00;95709.06;10536540;28;1545;-72
2022/11/05 07:55:52;;;;;;;;;;;8.90;99.90;;;8.32;100.00;95717.13;10536253;28;1644;-73
2022/11/05 08:00:54;;;;;;;;;;;9.00;99.90;;;8.54;100.00;95720.47;10566367;27;1913;-71
2022/11/05 08:05:58;;;;;;;;;;;;;;;8.46;100.00;95721.00;10535304;28;1648;-71
2022/11/05 08:11:01;;;;;;;;;;;;;;;8.34;100.00;95728.41;10534270;28;1636;-72
2022/11/05 08:16:04;;;;;;;;;;;;;;;8.48;100.00;95721.53;10533275;28;1722;-70
2022/11/05 08:21:08;;;;;;;;;;;;;;;8.69;100.00;95718.91;10536203;28;1901;-70
2022/11/05 08:26:11;;;;;;;;;;;;;;;8.72;100.00;95719.22;10532612;28;1711;-71
2022/11/05 08:31:16;;;;;;;;;;;;;;;8.76;100.00;95728.31;10536002;28;1204;-71
2022/11/05 08:36:20;;;;;;;;;;;;;;;8.65;100.00;95730.19;10536316;28;1536;-70
2022/11/05 08:41:23;;;;;;;;;;;;;;;8.90;100.00;95729.44;10536516;28;1968;-71
2022/11/05 08:46:26;;;;;;;;;;;;;;;8.69;100.00;95727.75;10540054;28;1117;-70
2022/11/05 08:51:31;;;;;;;;;;;;;;;8.62;100.00;95719.16;10532562;28;1636;-70
2022/11/05 08:56:34;;;;;;;;;;;;;;;8.83;100.00;95720.03;10536815;28;1663;-71
2022/11/05 09:01:37;;;;;;;;;;;;;;;8.88;100.00;95722.72;10535251;28;1980;-72
2022/11/05 09:06:40;;;;;;;;;;;;;;;8.77;100.00;95731.81;10533528;28;1723;-72
2022/11/05 09:11:43;;;;;;;;;;;;;;;8.86;100.00;95730.25;10533114;28;1683;-72
2022/11/05 09:17:06;;;;;;;;;;;;;;;8.97;100.00;95731.91;10535065;28;1888;-70
2022/11/05 09:22:11;;;;;;;;;;;;;;;8.64;100.00;95723.19;10534712;28;1974;-71
2022/11/05 09:27:14;;;;;;;;;;;;;;;8.64;100.00;95735.78;10540828;28;1462;-74
2022/11/05 09:32:19;;;;;;;;;;;;;;;8.61;100.00;95741.69;10543182;28;1125;-71
2022/11/05 09:37:22;;;;;;;;;;;;;;;8.91;100.00;95749.03;10537613;28;1692;-71
2022/11/05 09:42:26;;;;;;;;;;;;;;;9.19;100.00;95740.50;10541007;28;1910;-72
2022/11/05 09:47:29;;;;;;;;;;;;;;;9.13;100.00;95746.13;10541079;28;1853;-70
2022/11/05 09:52:32;;;;;;;;;;;;;;;8.70;100.00;95758.84;10541878;28;1207;-72
2022/11/05 09:57:35;;;;;;;;;;;;;;;8.91;100.00;95765.91;10540449;28;1744;-75
2022/11/05 10:02:38;;;;;;;;;;;;;;;9.08;100.00;95760.31;10542213;28;1922;-73
2022/11/05 10:07:42;;;;;;;;;;;;;;;8.94;100.00;95765.38;10543525;28;1623;-70
2022/11/05 10:12:45;;;;;;;;;;;;;;;8.63;100.00;95780.53;10546244;28;1686;-71
2022/11/05 10:17:48;;;;;;;;;;;;;;;8.70;100.00;95790.22;10541416;28;1138;-71
2022/11/05 10:22:51;;;;;;;;;;;;;;;8.66;100.00;95788.06;10538317;28;1926;-71
2022/11/05 10:27:54;;;;;;;;;;;;;;;8.49;100.00;95784.75;10537518;28;1604;-73
2022/11/05 10:32:57;;;;;;;;;;;;;;;8.94;100.00;95786.03;10539333;28;1425;-70
2022/11/05 10:38:01;;;;;;;;;;;;;;;9.31;100.00;95785.06;10534053;28;1616;-72
2022/11/05 10:43:04;;;;;;;;;;;;;;;10.09;100.00;95790.22;10538715;28;1976;-77
2022/11/05 10:48:07;;;;;;;;;;;;;;;10.61;100.00;95776.44;10538352;28;1660;-72
2022/11/05 10:53:10;;;;;;;;;;;;;;;10.88;100.00;95776.13;10539970;28;1144;-72
2022/11/05 10:58:13;;;;;;;;;;;;;;;11.07;100.00;95776.31;10537426;28;1668;-72
2022/11/05 11:03:16;;;;;;;;;;;;;;;11.04;100.00;95769.56;10539580;28;1987;-71
2022/11/05 11:08:19;;;;;;;;;;;;;;;10.81;100.00;95779.09;10537275;28;1684;-71
2022/11/05 11:13:22;;;;;;;;;;;;;;;10.53;100.00;95777.03;10539392;28;1137;-73
2022/11/05 11:18:26;;;;;;;;;;;;;;;10.72;100.00;95777.22;10534221;28;1628;-71
2022/11/05 11:23:29;;;;;;;;;;;;;;;10.46;100.00;95773.81;10538099;28;1972;-72
2022/11/05 11:28:32;;;;;;;;;;;;;;;9.71;100.00;95781.63;10536299;28;1612;-70
2022/11/05 11:33:35;;;;;;;;;;;;;;;9.52;100.00;95792.06;10541938;28;1157;-72
2022/11/05 11:38:38;;;;;;;;;;;;;;;9.53;100.00;95804.41;10526187;28;1913;-71
2022/11/05 11:43:42;;;;;;;;;;;;;;;9.68;100.00;95799.09;10536643;28;1181;-71
2022/11/05 11:48:46;;;;;;;;;;;;;;;9.77;100.00;95801.22;10541718;28;1632;-72
2022/11/05 11:53:49;;;;;;;;;;;;;;;9.50;100.00;95790.75;10541241;28;1128;-70
2022/11/05 11:58:52;;;;;;;;;;;;;;;9.35;100.00;95805.75;10532861;28;1910;-71
2022/11/05 12:03:56;;;;;;;;;;;;;;;9.30;100.00;95816.47;10535251;28;1450;-72
2022/11/05 12:09:01;;;;;;;;;;;;;;;9.09;100.00;95812.88;10531034;28;1525;-71
2022/11/05 12:14:09;;;;;;;;;;;;;;;8.83;100.00;95824.56;10536987;28;1093;-72
2022/11/05 12:19:12;;;;;;;;;;;;;;;8.47;100.00;95831.63;10527697;28;1914;-72
2022/11/05 12:24:15;;;;;;;;;;;;;;;8.25;100.00;95831.69;10536441;28;1097;-72
2022/11/05 12:29:21;;;;;;;;;;;;;;;8.13;100.00;95840.72;10533423;28;1533;-71
2022/11/05 12:34:24;;;;;;;;;;;;;;;8.25;100.00;95837.06;10536460;28;1110;-72
2022/11/05 12:39:27;;;;;;;;;;;;;;;8.53;100.00;95841.31;10525876;28;1902;-74
2022/11/05 12:44:31;;;;;;;;;;;;;;;8.68;100.00;95835.22;10535773;28;1187;-72
2022/11/05 12:49:34;;;;;;;;;;;;;;;8.63;100.00;95836.81;10527184;28;1719;-71
2022/11/05 12:54:38;;;;;;;;;;;;;;;8.62;100.00;95847.78;10535119;28;797;-72
2022/11/05 12:59:42;;;;;;;;;;;;;;;8.64;100.00;95848.31;10532431;28;1906;-72
2022/11/05 13:04:45;;;;;;;;;;;;;;;8.54;100.00;95846.41;10534871;28;1672;-75
2022/11/05 13:09:49;;;;;;;;;;;;;;;8.31;100.00;95850.22;10534566;28;1567;-75
2022/11/05 13:14:57;;;;;;;;;;;;;;;8.14;100.00;95854.91;10536298;28;1176;-71
2022/11/05 13:20:00;;;;;;;;;;;;;;;8.00;100.00;95851.84;10533345;28;1973;-72
2022/11/05 13:25:03;;;;;;;;;;;;;;;8.12;100.00;95854.38;10528722;28;1679;-72
2022/11/05 13:30:07;;;;;;;;;;;;;;;8.16;100.00;95852.00;10532163;28;1181;-74
2022/11/05 13:35:10;;;;;;;;;;;;;;;8.24;100.00;95864.91;10533566;28;1438;-72
2022/11/05 13:40:14;;;;;;;;;;;;;;;8.22;100.00;95867.03;10531367;28;1906;-72
2022/11/05 13:45:17;;;;;;;;;;;;;;;8.28;100.00;95863.34;10534354;28;1152;-71
2022/11/05 13:50:20;;;;;;;;;;;;;;;8.25;100.00;95870.00;10526659;28;1565;-71
2022/11/05 13:55:24;;;;;;;;;;;;;;;8.28;100.00;95868.69;10532737;28;1704;-72
2022/11/05 14:00:27;;;;;;;;;;;;;;;8.23;100.00;95871.34;10526752;28;1906;-72
2022/11/05 14:05:30;;;;;;;;;;;;;;;8.18;100.00;95882.00;10534689;28;1691;-75
2022/11/05 14:10:33;;;;;;;;;;;;;;;8.15;100.00;95879.84;10526115;28;1469;-77
2022/11/05 14:15:37;;;;;;;;;;;;;;;8.26;100.00;95886.88;10542081;28;1095;-72
2022/11/05 14:20:40;;;;;;;;;;;;;;;8.23;100.00;95888.19;10544311;28;1979;-72
2022/11/05 14:25:43;;;;;;;;;;;;;;;8.26;100.00;95898.38;10543916;28;1066;-71
2022/11/05 14:30:46;;;;;;;;;;;;;;;8.29;100.00;95889.06;10546298;28;1373;-71
2022/11/05 14:35:49;;;;;;;;;;;;;;;8.16;100.00;95897.50;10547399;28;1240;-71
2022/11/05 14:40:52;;;;;;;;;;;;;;;8.10;100.00;95893.97;10541138;28;1910;-71
2022/11/05 14:45:56;;;;;;;;;;;;;;;8.06;100.00;95899.03;10539904;28;952;-71
2022/11/05 14:50:59;;;;;;;;;;;;;;;7.85;100.00;95902.59;10535463;28;1664;-72
2022/11/05 14:56:02;;;;;;;;;;;;;;;7.67;100.00;95910.97;10538526;28;1322;-71
2022/11/05 15:01:05;;;;;;;;;;;;;;;7.71;100.00;95910.22;10535469;28;1976;-70
2022/11/05 15:06:08;;;;;;;;;;;;;;;7.68;100.00;95917.91;10537656;28;1691;-71
2022/11/05 15:11:11;;;;;;;;;;;;;;;7.68;100.00;95918.72;10537345;28;1485;-72
2022/11/05 15:16:14;;;;;;;;;;;;;;;7.73;100.00;95915.31;10539267;28;748;-72
2022/11/05 15:21:22;;;;;;;;;;;;;;;7.77;100.00;95921.78;10530815;28;1906;-72
2022/11/05 15:26:25;;;;;;;;;;;;;;;7.68;100.00;95928.63;10533949;28;1691;-71
2022/11/05 15:31:28;;;;;;;;;;;;;;;7.69;100.00;95931.03;10538093;28;1097;-72
2022/11/05 15:36:31;;;;;;;;;;;;;;;7.68;100.00;95928.63;10532414;28;1600;-72
2022/11/05 15:41:34;;;;;;;;;;;;;;;7.63;100.00;95936.59;10534806;28;1961;-72
2022/11/05 15:46:37;;;;;;;;;;;;;;;7.55;100.00;95941.31;10537210;28;865;-71
2022/11/05 15:51:40;;;;;;;;;;;;;;;7.47;100.00;95940.97;10535896;28;1715;-72
2022/11/05 15:56:43;;;;;;;;;;;;;;;7.51;100.00;95940.22;10533853;28;1723;-71
2022/11/05 16:01:47;;;;;;;;;;;;;;;7.53;100.00;95953.34;10536553;28;1981;-71
2022/11/05 16:06:50;;;;;;;;;;;;;;;7.50;100.00;95954.63;10529502;28;1651;-71
2022/11/05 16:11:53;;;;;;;;;;;;;;;7.48;100.00;95959.44;10534522;28;1454;-71
2022/11/05 16:16:56;;;;;;;;;;;;;;;7.51;100.00;95961.63;10537338;28;1082;-75
2022/11/05 16:22:00;;;;;;;;;;;;;;;7.40;100.00;95970.56;10534254;28;1988;-72
2022/11/05 16:27:04;;;;;;;;;;;;;;;7.37;100.00;95979.09;10535345;28;1624;-71
2022/11/05 16:32:14;;;;;;;;;;;;;;;7.34;100.00;95982.25;10539006;28;1090;-73
2022/11/05 16:37:17;;;;;;;;;;;;;;;7.38;100.00;95988.75;10537608;28;1686;-70
2022/11/05 16:42:20;;;;;;;;;;;;;;;7.46;100.00;95995.53;10534017;28;1977;-70
2022/11/05 16:47:25;;;;;;;;;;;;;;;7.47;100.00;95997.94;10534316;28;1741;-71
2022/11/05 16:52:28;;;;;;;;;;;;;;;7.48;100.00;95999.56;10538943;28;1227;-71
2022/11/05 16:57:31;;;;;;;;;;;;;;;7.53;100.00;96007.66;10535664;28;1667;-73
2022/11/05 17:02:34;;;;;;;;;;;;;;;7.30;100.00;96019.38;10538639;28;1909;-71
2022/11/05 17:07:37;;;;;;;;;;;;;;;7.17;100.00;96019.72;10535400;28;1727;-70
2022/11/05 17:12:43;;;;;;;;;;;;;;;7.07;100.00;96026.81;10532748;28;1572;-72
2022/11/05 17:17:47;;;;;;;;;;;;;;;7.10;100.00;96028.97;10532184;28;1628;-72
2022/11/05 17:22:51;;;;;;;;;;;;;;;7.09;100.00;96038.88;10535078;28;1909;-71
2022/11/05 17:27:54;;;;;;;;;;;;;;;7.11;100.00;96041.28;10527321;28;1781;-70
2022/11/05 17:32:57;;;;;;;;;;;;;;;7.09;100.00;96046.09;10533478;28;1449;-72
2022/11/05 17:38:00;;;;;;;;;;;;;;;7.07;100.00;96050.88;10534498;28;1470;-72
2022/11/05 17:43:04;;;;;;;;;;;;;;;6.97;100.00;96056.84;10534964;28;1957;-72
2022/11/05 17:48:08;;;;;;;;;;;;;;;6.98;100.00;96059.28;10539370;28;1722;-73
2022/11/05 17:53:11;;;;;;;;;;;;;;;6.97;100.00;96062.19;10543366;28;1195;-72
2022/11/05 17:58:15;;;;;;;;;;;;;;;6.87;100.00;96073.56;10539650;28;1616;-71
2022/11/05 18:03:18;;;;;;;;;;;;;;;6.81;100.00;96074.53;10547399;28;1890;-73
2022/11/05 18:08:21;;;;;;;;;;;;;;;6.80;100.00;96080.88;10536017;28;1924;-71
2022/11/05 18:13:24;;;;;;;;;;;;;;;6.77;100.00;96084.06;10543193;28;1117;-71
2022/11/05 18:18:27;;;;;;;;;;;;;;;6.75;100.00;96091.53;10539077;28;1631;-71
2022/11/05 18:23:30;;;;;;;;;;;;;;;6.79;100.00;96092.63;10543838;28;1918;-72
2022/11/05 18:28:33;;;;;;;;;;;;;;;6.76;100.00;96099.28;10543726;28;1687;-74
2022/11/05 18:33:37;;;;;;;;;;;;;;;6.77;100.00;96100.09;10542054;28;1235;-75
2022/11/05 18:38:40;;;;;;;;;;;;;;;6.83;100.00;96098.31;10538123;28;1624;-79
2022/11/05 18:43:43;;;;;;;;;;;;;;;6.91;100.00;96096.06;10541401;28;1906;-75
2022/11/05 18:48:46;;;;;;;;;;;;;;;6.95;100.00;96097.19;10539119;28;1660;-78
2022/11/05 18:53:49;;;;;;;;;;;;;;;6.99;100.00;96086.81;10546322;28;1090;-74
2022/11/05 18:58:52;;;;;;;;;;;;;;;6.91;100.00;96084.56;10539532;28;1668;-77
2022/11/05 19:04:15;;;;;;;;;;;;;;;6.82;100.00;96097.50;10538217;28;1979;-70
2022/11/05 19:09:19;;;;;;;;;;;;;;;6.69;100.00;96101.31;10541955;28;1506;-72
2022/11/05 19:14:22;;;;;;;;;;;;;;;6.67;100.00;96105.25;10541449;28;1120;-71
2022/11/05 19:19:26;;;;;;;;;;;;;;;6.65;100.00;96094.81;10535505;28;1726;-71
2022/11/05 19:24:29;;;;;;;;;;;;;;;6.53;100.00;96095.91;10536787;28;2006;-71
2022/11/05 19:29:32;;;;;;;;;;;;;;;6.44;100.00;96101.66;10536901;28;1652;-72
2022/11/05 19:34:35;;;;;;;;;;;;;;;6.37;100.00;96106.34;10540159;28;1221;-77
2022/11/05 19:39:39;;;;;;;;;;;;;;;6.26;100.00;96115.19;10536134;28;1636;-77
2022/11/05 19:44:42;;;;;;;;;;;;;;;6.28;100.00;96123.75;10538019;28;1910;-71
2022/11/05 19:49:46;;;;;;;;;;;;;;;6.25;100.00;96118.09;10537591;28;1683;-72
2022/11/05 19:54:50;;;;;;;;;;;;;;;6.18;100.00;96116.38;10537094;28;1682;-74
2022/11/05 19:59:54;;;;;;;;;;;;;;;6.12;100.00;96125.34;10535135;28;1438;-72
2022/11/05 20:04:57;;;;;;;;;;;;;;;6.24;100.00;96125.31;10536601;28;1910;-71
2022/11/05 20:10:00;;;;;;;;;;;;;;;6.25;100.00;96123.44;10530329;28;1745;-71
2022/11/05 20:15:04;;;;;;;;;;;;;;;6.08;100.00;96118.03;10535464;28;1129;-72
2022/11/05 20:20:07;;;;;;;;;;;;;;;5.92;100.00;96123.06;10530709;28;1572;-72
2022/11/05 20:25:10;;;;;;;;;;;;;;;5.80;100.00;96126.78;10533850;28;1914;-71
2022/11/05 20:30:13;;;;;;;;;;;;;;;5.65;100.00;96120.03;10534964;28;1169;-72
2022/11/05 20:35:16;;;;;;;;;;;;;;;5.62;100.00;96127.72;10534151;28;1432;-71
2022/11/05 20:40:19;;;;;;;;;;;;;;;5.51;100.00;96131.19;10532579;28;1565;-74
2022/11/05 20:45:23;;;;;;;;;;;;;;;5.48;100.00;96134.34;10534611;28;1980;-72
2022/11/05 20:50:26;;;;;;;;;;;;;;;5.43;100.00;96143.84;10529710;28;1727;-72
2022/11/05 20:55:29;;;;;;;;;;;;;;;5.41;100.00;96139.78;10534324;28;1588;-72
2022/11/05 21:00:33;;;;;;;;;;;;;;;5.49;100.00;96150.09;10534666;28;1176;-73
2022/11/05 21:05:36;;;;;;;;;;;;;;;5.55;100.00;96146.50;10531746;28;1975;-72
2022/11/05 21:10:39;;;;;;;;;;;;;;;5.62;100.00;96147.19;10533690;28;1684;-71
2022/11/05 21:15:42;;;;;;;;;;;;;;;5.63;100.00;96148.81;10533636;28;1628;-70
2022/11/05 21:20:45;;;;;;;;;;;;;;;5.65;100.00;96152.06;10532716;28;1134;-71
2022/11/05 21:25:48;;;;;;;;;;;;;;;5.64;100.00;96141.63;10542509;28;1918;-72
2022/11/05 21:30:51;;;;;;;;;;;;;;;5.53;100.00;96131.78;10543188;28;1158;-70
2022/11/05 21:35:55;;;;;;;;;;;;;;;5.39;100.00;96136.53;10535359;28;1473;-71
2022/11/05 21:40:58;;;;;;;;;;;;;;;5.22;100.00;96139.09;10540399;28;1461;-72
2022/11/05 21:46:01;;;;;;;;;;;;;;;5.13;100.00;96135.13;10542634;28;1985;-72
2022/11/05 22:01:47;;;;;;;;;;;;;;;5.02;100.00;96133.25;10541978;28;1977;-71
2022/11/05 22:06:50;;;;;;;;;;;6.00;99.90;;;4.93;100.00;96138.13;10543277;28;1935;-72
2022/11/05 22:11:55;;;;;;;;;;;6.10;99.90;;;4.85;100.00;96135.78;10543804;28;1386;-70
2022/11/05 22:16:58;;;;;;;;;;;6.00;99.90;;;4.76;100.00;96139.81;10540982;28;1738;-70
2022/11/05 22:22:01;;;;;;;;;;;;;;;4.70;100.00;96133.53;10541109;28;1906;-72
2022/11/05 22:27:04;;;;;;;;;;;5.90;99.90;;;4.68;100.00;96143.59;10539341;28;1750;-71
2022/11/05 22:32:07;;;;;;;;;;;5.80;99.90;;;4.65;100.00;96149.41;10539499;28;1207;-72
2022/11/05 22:37:10;;;;;;;;;;;;;;;4.63;100.00;96151.47;10536566;28;1552;-74
2022/11/05 22:42:13;;;;;;;;;;;;;;;4.59;100.00;96151.13;10537626;28;1977;-76
2022/11/05 22:47:17;;;;;;;;;;;;;;;4.54;100.00;96144.84;10538162;28;1608;-71
2022/11/05 22:52:20;;;;;;;;;;;;;;;4.68;100.00;96140.13;10532521;28;1079;-71
2022/11/05 22:57:23;;;;;;;;;;;;;;;4.59;100.00;96140.47;10538884;28;1631;-74
2022/11/05 23:02:27;;;;;;;;;;;;;;;4.61;100.00;96140.22;10540077;28;1906;-71
2022/11/05 23:12:52;;;;;;;;;;;;;;;4.52;100.00;96136.28;10538770;28;1675;-71
2022/11/05 23:28:37;;;;;;;;;;;;;;;4.28;100.00;96130.84;10537614;28;1730;-71
2022/11/05 23:33:40;;;;;;;;;;;;;;;4.21;100.00;96127.47;10536245;28;1468;-71
2022/11/05 23:38:43;;;;;;;;;;;;;;;4.13;100.00;96126.94;10537786;28;1521;-71
2022/11/05 23:49:08;;;;;;;;;;;;;;;3.93;100.00;96128.00;10537739;28;1664;-72
2022/11/05 23:54:11;;;;;;;;;;;;;;;3.93;100.00;96122.69;10537309;28;1144;-71
2022/11/05 23:59:14;;;;;;;;;;;5.00;99.90;;;3.87;100.00;96130.75;10528518;28;1773;-70
